createdAt,value
2022-12-11T00:00:38.104Z,68.60
2022-12-11T00:03:30.277Z,67.00
2022-12-11T00:06:02.744Z,66.19
2022-12-11T00:08:34.902Z,65.23
2022-12-11T00:11:12.432Z,65.40
2022-12-11T00:13:45.091Z,65.05
2022-12-11T00:16:19.535Z,65.92
2022-12-11T00:18:54.790Z,66.24
2022-12-11T00:21:51.202Z,65.07
2022-12-11T00:24:30.121Z,64.32
2022-12-11T00:27:04.933Z,64.76
2022-12-11T00:29:38.055Z,64.86
2022-12-11T00:32:13.070Z,65.20
2022-12-11T00:34:49.262Z,67.21
2022-12-11T00:37:21.888Z,68.44
2022-12-11T00:39:57.097Z,67.79
2022-12-11T00:42:33.149Z,66.97
2022-12-11T00:45:04.767Z,66.63
2022-12-11T00:47:37.147Z,68.35
2022-12-11T00:50:10.239Z,67.90
2022-12-11T00:52:42.790Z,68.93
2022-12-11T00:55:16.109Z,67.80
2022-12-11T00:57:51.004Z,67.00
2022-12-11T01:00:23.125Z,66.38
2022-12-11T01:02:56.104Z,65.35
2022-12-11T01:05:27.781Z,63.99
2022-12-11T01:08:00.137Z,64.66
2022-12-11T01:10:32.039Z,63.93
2022-12-11T01:13:10.082Z,65.80
2022-12-11T01:15:46.299Z,65.98
2022-12-11T01:18:20.284Z,67.69
2022-12-11T01:20:52.071Z,67.82
2022-12-11T01:23:43.579Z,68.61
2022-12-11T01:26:18.701Z,68.31
2022-12-11T01:28:56.222Z,67.62
2022-12-11T01:31:28.339Z,67.11
2022-12-11T01:34:00.576Z,66.44
2022-12-11T01:36:32.405Z,66.60
2022-12-11T01:39:26.560Z,65.81
2022-12-11T01:42:04.648Z,64.97
2022-12-11T01:45:21.533Z,64.78
2022-12-11T01:48:11.367Z,65.70
2022-12-11T01:50:50.960Z,65.13
2022-12-11T01:53:28.147Z,65.83
2022-12-11T01:56:02.960Z,65.97
2022-12-11T01:58:43.504Z,66.26
2022-12-11T02:01:22.383Z,68.25
2022-12-11T02:03:59.148Z,67.77
2022-12-11T02:06:42.816Z,67.36
2022-12-11T02:09:20.350Z,68.83
2022-12-11T02:12:05.021Z,69.71
2022-12-11T02:14:43.151Z,69.06
2022-12-11T02:17:20.972Z,68.02
2022-12-11T02:20:06.856Z,69.26
2022-12-11T02:23:15.852Z,69.34
2022-12-11T02:26:00.604Z,69.05
2022-12-11T02:28:43.919Z,69.79
2022-12-11T02:31:23.536Z,70.43
2022-12-11T02:34:01.648Z,69.13
2022-12-11T02:36:43.320Z,70.23
2022-12-11T02:39:19.162Z,71.87
2022-12-11T02:41:54.203Z,71.91
2022-12-11T02:44:33.578Z,71.96
2022-12-11T02:47:09.681Z,71.23
2022-12-11T02:49:50.765Z,72.26
2022-12-11T02:52:25.886Z,71.14
2022-12-11T02:55:04.439Z,70.19
2022-12-11T02:57:43.495Z,70.81
2022-12-11T03:00:19.174Z,71.10
2022-12-11T03:02:52.148Z,71.16
2022-12-11T03:05:24.484Z,70.51
2022-12-11T03:07:56.006Z,70.03
2022-12-11T03:10:28.029Z,70.67
2022-12-11T03:13:02.458Z,71.59
2022-12-11T03:15:45.204Z,73.09
2022-12-11T03:18:23.680Z,74.26
2022-12-11T03:21:07.484Z,74.00
2022-12-11T03:23:44.689Z,73.34
2022-12-11T03:26:19.430Z,73.30
2022-12-11T03:28:59.579Z,73.40
2022-12-11T03:31:42.496Z,71.52
2022-12-11T03:34:21.739Z,72.06
2022-12-11T03:36:56.258Z,73.40
2022-12-11T03:39:34.157Z,74.48
2022-12-11T03:42:11.870Z,72.69
2022-12-11T03:44:47.458Z,71.67
2022-12-11T03:47:25.449Z,72.89
2022-12-11T03:49:58.694Z,74.65
2022-12-11T03:52:32.737Z,74.68
2022-12-11T03:55:07.052Z,73.84
2022-12-11T03:57:40.936Z,72.11
2022-12-11T04:00:16.776Z,73.49
2022-12-11T04:03:11.203Z,74.10
2022-12-11T04:05:45.476Z,73.95
2022-12-11T04:08:17.439Z,74.01
2022-12-11T04:10:48.822Z,74.78
2022-12-11T04:16:37.524Z,73.57
2022-12-11T04:19:24.896Z,71.95
2022-12-11T04:22:08.658Z,72.35
2022-12-11T04:24:40.790Z,70.42
2022-12-11T04:27:12.716Z,69.97
2022-12-11T04:29:47.155Z,70.43
2022-12-11T04:32:18.855Z,69.33
2022-12-11T04:34:58.602Z,71.76
2022-12-11T04:37:31.135Z,73.72
2022-12-11T04:40:04.208Z,74.67
2022-12-11T04:42:36.049Z,75.66
2022-12-11T04:45:11.318Z,74.91
2022-12-11T04:47:44.445Z,75.23
2022-12-11T04:50:19.749Z,74.60
2022-12-11T04:52:51.781Z,73.94
2022-12-11T04:55:24.306Z,72.55
2022-12-11T04:57:56.346Z,73.79
2022-12-11T05:00:28.726Z,73.86
2022-12-11T05:03:00.511Z,73.39
2022-12-11T05:05:35.535Z,74.62
2022-12-11T05:08:08.494Z,75.35
2022-12-11T05:10:43.424Z,76.05
2022-12-11T05:13:17.967Z,76.00
2022-12-11T05:15:50.293Z,76.16
2022-12-11T05:18:22.195Z,76.78
2022-12-11T05:21:02.822Z,76.55
2022-12-11T05:23:34.404Z,76.63
2022-12-11T05:26:08.488Z,75.61
2022-12-11T05:28:41.901Z,76.84
2022-12-11T05:31:17.510Z,77.78
2022-12-11T05:33:50.987Z,76.79
2022-12-11T05:36:28.317Z,76.31
2022-12-11T05:39:01.487Z,75.16
2022-12-11T05:41:35.045Z,76.48
2022-12-11T05:44:06.756Z,75.78
2022-12-11T05:46:38.732Z,74.19
2022-12-11T05:49:10.519Z,73.89
2022-12-11T05:51:45.093Z,73.30
2022-12-11T05:54:16.814Z,73.85
2022-12-11T05:56:48.914Z,74.68
2022-12-11T05:59:21.963Z,74.28
2022-12-11T06:01:53.911Z,73.61
2022-12-11T06:04:25.498Z,72.13
2022-12-11T06:07:00.472Z,72.08
2022-12-11T06:09:31.905Z,71.69
2022-12-11T06:12:03.926Z,71.95
2022-12-11T06:14:35.409Z,71.33
2022-12-11T06:17:07.669Z,73.63
2022-12-11T06:19:39.042Z,74.16
2022-12-11T06:22:13.539Z,72.89
2022-12-11T06:24:45.254Z,72.44
2022-12-11T06:27:19.350Z,72.53
2022-12-11T06:29:50.983Z,71.84
2022-12-11T06:32:22.729Z,70.99
2022-12-11T06:34:54.159Z,71.29
2022-12-11T06:37:28.743Z,71.18
2022-12-11T06:39:59.952Z,69.28
2022-12-11T06:42:33.127Z,69.17
2022-12-11T06:45:04.923Z,68.24
2022-12-11T06:47:36.560Z,67.15
2022-12-11T06:50:08.629Z,66.45
2022-12-11T06:52:43.428Z,67.89
2022-12-11T06:55:14.902Z,66.72
2022-12-11T06:57:46.996Z,65.72
2022-12-11T07:00:19.890Z,66.14
2022-12-11T07:02:53.996Z,65.78
2022-12-11T07:05:25.747Z,64.98
2022-12-11T07:08:00.983Z,64.54
2022-12-11T07:10:32.601Z,66.01
2022-12-11T07:13:04.422Z,65.96
2022-12-11T07:15:40.211Z,66.31
2022-12-11T07:18:13.232Z,65.29
2022-12-11T07:20:44.996Z,65.39
2022-12-11T07:23:19.560Z,66.31
2022-12-11T07:25:51.214Z,67.61
2022-12-11T07:28:23.547Z,67.83
2022-12-11T07:30:55.228Z,68.17
2022-12-11T07:33:27.105Z,67.48
2022-12-11T07:35:58.520Z,66.04
2022-12-11T07:38:33.512Z,66.04
2022-12-11T07:41:05.513Z,66.21
2022-12-11T07:43:38.305Z,67.05
2022-12-11T07:46:12.564Z,66.49
2022-12-11T07:48:46.138Z,65.75
2022-12-11T07:51:19.846Z,64.99
2022-12-11T07:53:54.576Z,65.18
2022-12-11T07:56:26.477Z,64.84
2022-12-11T07:58:58.247Z,65.59
2022-12-11T08:01:31.669Z,66.48
2022-12-11T08:04:04.001Z,65.97
2022-12-11T08:06:38.366Z,66.33
2022-12-11T08:09:21.230Z,65.97
2022-12-11T08:11:53.928Z,65.36
2022-12-11T08:14:25.872Z,64.33
2022-12-11T08:16:58.160Z,64.77
2022-12-11T08:19:30.699Z,66.04
2022-12-11T08:22:01.870Z,66.29
2022-12-11T08:24:36.084Z,64.91
2022-12-11T08:27:07.480Z,65.03
2022-12-11T08:29:38.920Z,64.56
2022-12-11T08:32:12.487Z,65.95
2022-12-11T08:34:44.390Z,64.43
2022-12-11T08:37:15.599Z,64.51
2022-12-11T08:39:50.221Z,64.47
2022-12-11T08:42:21.674Z,63.81
2022-12-11T08:44:53.396Z,63.44
2022-12-11T08:47:24.680Z,63.73
2022-12-11T08:49:57.115Z,64.53
2022-12-11T08:52:28.330Z,63.18
2022-12-11T08:55:02.175Z,63.21
2022-12-11T15:09:00.445Z,70.43
2022-12-11T15:12:14.895Z,70.26
2022-12-11T15:14:53.836Z,71.89
2022-12-11T15:17:27.596Z,71.26
2022-12-11T15:20:07.534Z,71.60
2022-12-11T15:22:40.337Z,70.19
2022-12-11T15:25:31.819Z,68.26
2022-12-11T15:28:06.976Z,69.58
2022-12-11T15:30:39.697Z,70.33
2022-12-11T15:33:34.798Z,69.53
2022-12-11T15:36:09.776Z,70.10
2022-12-11T15:38:43.737Z,69.74
2022-12-11T15:41:21.376Z,71.14
2022-12-11T15:43:59.086Z,70.15
2022-12-11T15:46:31.029Z,69.58
2022-12-11T15:49:02.211Z,69.78
2022-12-11T15:51:34.500Z,69.20
2022-12-11T15:54:08.432Z,71.29
2022-12-11T15:56:40.094Z,71.44
2022-12-11T15:59:14.717Z,69.17
2022-12-11T16:01:46.724Z,68.54
2022-12-11T16:04:18.030Z,68.98
2022-12-11T16:06:49.486Z,70.35
2022-12-11T16:09:26.167Z,72.04
2022-12-11T16:11:57.616Z,73.76
2022-12-11T16:14:32.977Z,71.63
2022-12-11T16:17:05.016Z,71.23
2022-12-11T16:19:37.415Z,70.50
2022-12-11T16:22:11.377Z,69.66
2022-12-11T16:24:44.556Z,68.75
2022-12-11T16:27:22.816Z,68.72
2022-12-11T16:29:57.887Z,71.74
2022-12-11T16:32:30.040Z,72.03
2022-12-11T16:35:06.126Z,72.59
2022-12-11T16:37:38.309Z,73.37
2022-12-11T16:40:11.785Z,72.98
2022-12-11T16:42:47.158Z,72.69
2022-12-11T16:46:14.647Z,72.82
2022-12-11T16:49:41.914Z,73.21
2022-12-11T16:52:28.916Z,74.38
2022-12-11T16:55:01.655Z,73.35
2022-12-11T16:57:34.923Z,72.72
2022-12-11T17:00:09.194Z,71.65
2022-12-11T17:02:41.677Z,71.58
2022-12-11T17:05:17.036Z,71.57
2022-12-11T17:07:49.211Z,73.50
2022-12-11T17:10:21.957Z,72.61
2022-12-11T17:12:54.297Z,74.12
2022-12-11T17:15:26.915Z,74.17
2022-12-11T17:17:59.175Z,73.80
2022-12-11T17:20:34.657Z,73.02
2022-12-11T17:23:06.914Z,74.05
2022-12-11T17:25:42.636Z,73.84
2022-12-11T17:28:15.915Z,72.73
2022-12-11T17:30:50.534Z,71.77
2022-12-11T17:33:22.656Z,72.69
2022-12-11T17:35:58.115Z,76.01
2022-12-11T17:38:30.436Z,76.06
2022-12-11T17:41:03.155Z,73.68
2022-12-11T17:43:35.556Z,74.40
2022-12-11T17:46:08.648Z,74.39
2022-12-11T17:48:41.136Z,74.64
2022-12-11T17:51:21.473Z,74.63
2022-12-11T17:53:53.937Z,73.91
2022-12-11T17:56:27.196Z,74.64
2022-12-11T17:58:59.060Z,74.67
2022-12-11T18:01:31.176Z,74.29
2022-12-11T18:04:05.312Z,76.21
2022-12-11T18:06:39.931Z,75.21
2022-12-11T18:09:11.575Z,74.07
2022-12-11T18:11:43.848Z,73.99
2022-12-11T18:14:17.613Z,74.51
2022-12-11T18:16:50.087Z,75.93
2022-12-11T18:19:23.045Z,76.42
2022-12-11T18:21:58.148Z,76.24
2022-12-11T18:24:35.115Z,74.07
2022-12-11T18:27:10.812Z,74.78
2022-12-11T18:29:42.401Z,75.87
2022-12-11T18:32:14.491Z,75.25
2022-12-11T18:34:46.167Z,74.11
2022-12-11T18:37:26.226Z,73.69
2022-12-11T18:39:59.478Z,74.64
2022-12-11T18:42:33.194Z,74.79
2022-12-11T18:45:07.285Z,75.78
2022-12-11T18:47:40.226Z,74.01
2022-12-11T18:50:12.299Z,76.15
2022-12-11T18:52:46.859Z,75.88
2022-12-11T18:55:18.328Z,74.89
2022-12-11T18:57:50.530Z,74.26
2022-12-11T19:00:23.376Z,76.45
2022-12-11T19:02:55.636Z,74.58
2022-12-11T19:05:27.128Z,73.38
2022-12-11T19:08:01.450Z,73.62
2022-12-11T19:10:32.956Z,72.97
2022-12-11T19:13:04.526Z,73.54
2022-12-11T19:15:36.117Z,74.80
2022-12-11T19:18:07.981Z,75.60
2022-12-11T19:20:56.757Z,77.19
2022-12-11T19:23:38.008Z,75.11
2022-12-11T19:26:13.786Z,75.08
2022-12-11T19:28:45.511Z,74.64
2022-12-11T19:31:19.811Z,76.13
2022-12-11T19:33:52.427Z,75.93
2022-12-11T19:36:25.970Z,76.14
2022-12-11T19:39:02.129Z,78.28
2022-12-11T19:41:34.938Z,78.05
2022-12-11T19:44:07.659Z,76.42
2022-12-11T19:46:39.650Z,73.96
2022-12-11T19:49:11.595Z,75.10
2022-12-11T19:51:45.068Z,76.68
2022-12-11T19:54:21.431Z,75.62
2022-12-11T19:56:53.856Z,74.35
2022-12-11T19:59:25.732Z,73.35
2022-12-11T20:01:57.311Z,74.88
2022-12-11T20:04:29.386Z,75.30
2022-12-11T20:07:01.424Z,74.23
2022-12-11T20:09:36.815Z,74.02
2022-12-11T20:12:10.929Z,77.43
2022-12-11T20:14:42.782Z,76.79
2022-12-11T20:17:15.234Z,76.79
2022-12-11T20:19:47.435Z,77.19
2022-12-11T20:22:19.132Z,77.17
2022-12-11T20:24:53.724Z,75.39
2022-12-11T20:27:26.570Z,75.91
2022-12-11T20:29:58.103Z,75.41
2022-12-11T20:32:30.474Z,75.16
2022-12-11T20:35:02.573Z,76.60
2022-12-11T20:37:34.285Z,78.41
2022-12-11T20:40:10.397Z,76.84
2022-12-11T20:42:41.846Z,75.40
2022-12-11T20:45:14.514Z,76.67
2022-12-11T20:47:46.854Z,74.78
2022-12-11T20:50:18.598Z,74.55
2022-12-11T20:52:50.057Z,73.89
2022-12-11T20:55:26.638Z,73.18
2022-12-11T20:57:57.799Z,72.69
2022-12-11T21:00:32.500Z,75.25
2022-12-11T21:03:04.332Z,75.69
2022-12-11T21:05:37.184Z,75.49
2022-12-11T21:08:09.750Z,74.79
2022-12-11T21:10:48.275Z,74.75
2022-12-11T21:13:20.692Z,74.25
2022-12-11T21:15:57.017Z,74.12
2022-12-11T21:18:29.456Z,74.59
2022-12-11T21:21:02.019Z,74.67
2022-12-11T21:23:34.493Z,73.33
2022-12-11T21:26:10.274Z,72.72
2022-12-11T21:28:42.593Z,75.94
2022-12-11T21:31:17.634Z,77.45
2022-12-11T21:33:50.533Z,77.89
2022-12-11T21:36:23.162Z,76.04
2022-12-11T21:38:56.033Z,76.97
2022-12-11T21:41:37.580Z,75.81
2022-12-11T21:47:01.813Z,74.22
2022-12-11T21:49:44.606Z,73.13
2022-12-11T21:52:21.019Z,73.04
2022-12-11T21:54:56.728Z,73.37
2022-12-11T21:57:37.322Z,76.07
2022-12-11T22:00:11.187Z,75.53
2022-12-11T22:02:44.043Z,75.80
2022-12-11T22:05:16.585Z,75.39
2022-12-11T22:07:49.106Z,74.29
2022-12-11T22:10:21.108Z,74.46
2022-12-11T22:12:56.269Z,73.56
2022-12-11T22:15:28.288Z,74.78
2022-12-11T22:18:00.365Z,75.29
2022-12-11T22:20:33.787Z,75.42
2022-12-11T22:23:06.147Z,75.02
2022-12-11T22:25:38.247Z,74.98
2022-12-11T22:28:13.126Z,74.31
2022-12-11T22:30:45.574Z,74.37
2022-12-11T22:33:18.507Z,74.25
2022-12-11T22:35:50.587Z,74.50
2022-12-11T22:38:23.167Z,75.16
2022-12-11T22:40:56.025Z,74.97
2022-12-11T22:43:31.106Z,74.51
2022-12-11T22:46:03.213Z,75.55
2022-12-11T22:48:35.767Z,75.75
2022-12-11T22:51:08.909Z,76.49
2022-12-11T22:53:41.445Z,76.66
2022-12-11T22:56:15.688Z,77.57
2022-12-11T22:58:50.869Z,77.27
2022-12-11T23:01:26.527Z,76.16
2022-12-11T23:03:58.885Z,77.75
2022-12-11T23:06:30.807Z,79.20
2022-12-11T23:09:04.427Z,79.76
2022-12-11T23:11:39.697Z,78.42
2022-12-11T23:14:19.287Z,77.11
2022-12-11T23:16:51.198Z,79.28
2022-12-11T23:19:25.707Z,79.51
2022-12-11T23:21:58.836Z,80.58
2022-12-11T23:24:31.146Z,80.67
2022-12-11T23:27:03.585Z,78.26
2022-12-11T23:29:39.266Z,77.91
2022-12-11T23:32:13.308Z,77.15
2022-12-11T23:34:45.625Z,76.53
2022-12-11T23:37:18.167Z,76.28
2022-12-11T23:39:52.207Z,75.78
2022-12-11T23:42:27.265Z,77.57
2022-12-11T23:45:06.016Z,77.17
2022-12-11T23:47:49.205Z,76.80
2022-12-11T23:50:22.443Z,75.16
2022-12-11T23:52:55.662Z,76.28
2022-12-11T23:55:28.434Z,75.46
2022-12-11T23:58:00.206Z,76.04
